sensor_id;sensor_type;location;lat;lon;timestamp;P1;durP1;ratioP1;P2;durP2;ratioP2
23747;SDS011;12054;53.662;10.126;2022-12-20T00:00:50;13.60;;;8.15;;
23747;SDS011;12054;53.662;10.126;2022-12-20T00:03:16;12.65;;;7.60;;
23747;SDS011;12054;53.662;10.126;2022-12-20T00:05:41;12.98;;;8.45;;
23747;SDS011;12054;53.662;10.126;2022-12-20T00:08:08;12.30;;;7.80;;
23747;SDS011;12054;53.662;10.126;2022-12-20T00:10:38;13.82;;;8.23;;
23747;SDS011;12054;53.662;10.126;2022-12-20T00:13:04;14.10;;;7.95;;
23747;SDS011;12054;53.662;10.126;2022-12-20T00:15:30;13.23;;;8.45;;
23747;SDS011;12054;53.662;10.126;2022-12-20T00:17:56;13.82;;;8.82;;
23747;SDS011;12054;53.662;10.126;2022-12-20T00:20:22;13.95;;;9.25;;
23747;SDS011;12054;53.662;10.126;2022-12-20T00:22:48;13.30;;;8.23;;
23747;SDS011;12054;53.662;10.126;2022-12-20T00:25:13;14.25;;;8.13;;
23747;SDS011;12054;53.662;10.126;2022-12-20T00:27:39;12.15;;;8.43;;
23747;SDS011;12054;53.662;10.126;2022-12-20T00:30:05;15.48;;;8.85;;
23747;SDS011;12054;53.662;10.126;2022-12-20T00:32:31;11.93;;;8.00;;
23747;SDS011;12054;53.662;10.126;2022-12-20T00:34:56;13.18;;;8.23;;
23747;SDS011;12054;53.662;10.126;2022-12-20T00:37:22;12.30;;;7.82;;
23747;SDS011;12054;53.662;10.126;2022-12-20T00:39:47;13.40;;;8.15;;
23747;SDS011;12054;53.662;10.126;2022-12-20T00:42:13;16.30;;;9.15;;
23747;SDS011;12054;53.662;10.126;2022-12-20T00:44:39;14.45;;;8.27;;
23747;SDS011;12054;53.662;10.126;2022-12-20T00:47:05;11.98;;;7.93;;
23747;SDS011;12054;53.662;10.126;2022-12-20T00:49:30;15.20;;;8.32;;
23747;SDS011;12054;53.662;10.126;2022-12-20T00:51:56;10.48;;;7.10;;
23747;SDS011;12054;53.662;10.126;2022-12-20T00:54:21;13.85;;;8.13;;
23747;SDS011;12054;53.662;10.126;2022-12-20T00:56:47;11.48;;;7.55;;
23747;SDS011;12054;53.662;10.126;2022-12-20T00:59:12;12.52;;;7.22;;
23747;SDS011;12054;53.662;10.126;2022-12-20T01:01:38;13.48;;;7.63;;
23747;SDS011;12054;53.662;10.126;2022-12-20T01:04:04;13.20;;;7.50;;
23747;SDS011;12054;53.662;10.126;2022-12-20T01:06:29;10.07;;;7.32;;
23747;SDS011;12054;53.662;10.126;2022-12-20T01:08:55;13.00;;;7.40;;
23747;SDS011;12054;53.662;10.126;2022-12-20T01:11:22;11.60;;;6.18;;
23747;SDS011;12054;53.662;10.126;2022-12-20T01:13:51;12.15;;;7.43;;
23747;SDS011;12054;53.662;10.126;2022-12-20T01:16:24;11.82;;;8.00;;
23747;SDS011;12054;53.662;10.126;2022-12-20T01:19:03;12.55;;;8.00;;
23747;SDS011;12054;53.662;10.126;2022-12-20T01:21:29;11.50;;;7.35;;
23747;SDS011;12054;53.662;10.126;2022-12-20T01:23:55;13.60;;;7.22;;
23747;SDS011;12054;53.662;10.126;2022-12-20T01:26:22;11.05;;;7.53;;
23747;SDS011;12054;53.662;10.126;2022-12-20T01:28:51;11.65;;;7.30;;
23747;SDS011;12054;53.662;10.126;2022-12-20T01:31:18;10.60;;;7.05;;
23747;SDS011;12054;53.662;10.126;2022-12-20T01:33:45;10.70;;;6.85;;
23747;SDS011;12054;53.662;10.126;2022-12-20T01:36:15;13.63;;;7.65;;
23747;SDS011;12054;53.662;10.126;2022-12-20T01:38:43;11.88;;;7.00;;
23747;SDS011;12054;53.662;10.126;2022-12-20T01:41:14;12.85;;;7.40;;
23747;SDS011;12054;53.662;10.126;2022-12-20T01:43:46;12.20;;;7.95;;
23747;SDS011;12054;53.662;10.126;2022-12-20T01:46:15;13.13;;;7.88;;
23747;SDS011;12054;53.662;10.126;2022-12-20T01:48:43;12.70;;;8.05;;
23747;SDS011;12054;53.662;10.126;2022-12-20T01:51:26;11.43;;;8.18;;
23747;SDS011;12054;53.662;10.126;2022-12-20T01:53:56;13.38;;;8.30;;
23747;SDS011;12054;53.662;10.126;2022-12-20T01:56:26;11.20;;;7.75;;
23747;SDS011;12054;53.662;10.126;2022-12-20T01:58:52;13.68;;;8.75;;
23747;SDS011;12054;53.662;10.126;2022-12-20T02:01:20;15.52;;;8.77;;
23747;SDS011;12054;53.662;10.126;2022-12-20T02:03:47;15.55;;;9.13;;
23747;SDS011;12054;53.662;10.126;2022-12-20T02:06:15;13.57;;;8.60;;
23747;SDS011;12054;53.662;10.126;2022-12-20T02:08:42;13.80;;;8.23;;
23747;SDS011;12054;53.662;10.126;2022-12-20T02:14:18;12.63;;;7.97;;
23747;SDS011;12054;53.662;10.126;2022-12-20T02:23:15;13.98;;;8.35;;
23747;SDS011;12054;53.662;10.126;2022-12-20T02:26:09;14.98;;;8.45;;
23747;SDS011;12054;53.662;10.126;2022-12-20T02:31:32;13.65;;;8.63;;
23747;SDS011;12054;53.662;10.126;2022-12-20T02:34:02;14.52;;;8.88;;
23747;SDS011;12054;53.662;10.126;2022-12-20T02:36:31;13.88;;;8.05;;
23747;SDS011;12054;53.662;10.126;2022-12-20T02:38:56;13.98;;;9.10;;
23747;SDS011;12054;53.662;10.126;2022-12-20T02:41:26;14.68;;;8.18;;
23747;SDS011;12054;53.662;10.126;2022-12-20T02:44:18;11.98;;;8.15;;
23747;SDS011;12054;53.662;10.126;2022-12-20T02:47:03;16.13;;;8.18;;
23747;SDS011;12054;53.662;10.126;2022-12-20T02:49:32;14.10;;;8.07;;
23747;SDS011;12054;53.662;10.126;2022-12-20T02:52:02;12.02;;;7.57;;
23747;SDS011;12054;53.662;10.126;2022-12-20T02:54:30;12.95;;;8.52;;
23747;SDS011;12054;53.662;10.126;2022-12-20T02:57:01;10.45;;;7.53;;
23747;SDS011;12054;53.662;10.126;2022-12-20T02:59:42;13.73;;;7.78;;
23747;SDS011;12054;53.662;10.126;2022-12-20T03:02:15;14.07;;;8.18;;
23747;SDS011;12054;53.662;10.126;2022-12-20T03:04:42;13.48;;;7.68;;
23747;SDS011;12054;53.662;10.126;2022-12-20T03:07:09;11.38;;;7.20;;
23747;SDS011;12054;53.662;10.126;2022-12-20T03:09:40;11.93;;;7.63;;
23747;SDS011;12054;53.662;10.126;2022-12-20T03:12:08;10.38;;;7.45;;
23747;SDS011;12054;53.662;10.126;2022-12-20T03:14:35;11.13;;;7.15;;
23747;SDS011;12054;53.662;10.126;2022-12-20T03:17:01;12.13;;;6.47;;
23747;SDS011;12054;53.662;10.126;2022-12-20T03:19:27;9.50;;;7.13;;
23747;SDS011;12054;53.662;10.126;2022-12-20T03:21:53;10.70;;;7.03;;
23747;SDS011;12054;53.662;10.126;2022-12-20T03:24:19;11.25;;;6.72;;
23747;SDS011;12054;53.662;10.126;2022-12-20T03:26:44;10.75;;;6.72;;
23747;SDS011;12054;53.662;10.126;2022-12-20T03:29:10;8.68;;;6.40;;
23747;SDS011;12054;53.662;10.126;2022-12-20T03:31:35;11.07;;;6.50;;
23747;SDS011;12054;53.662;10.126;2022-12-20T03:34:02;10.95;;;6.00;;
23747;SDS011;12054;53.662;10.126;2022-12-20T03:36:28;8.02;;;5.78;;
23747;SDS011;12054;53.662;10.126;2022-12-20T03:38:53;9.70;;;6.07;;
23747;SDS011;12054;53.662;10.126;2022-12-20T03:41:19;9.75;;;6.15;;
23747;SDS011;12054;53.662;10.126;2022-12-20T03:43:46;8.77;;;5.18;;
23747;SDS011;12054;53.662;10.126;2022-12-20T03:46:12;9.15;;;5.40;;
23747;SDS011;12054;53.662;10.126;2022-12-20T03:48:38;7.32;;;5.38;;
23747;SDS011;12054;53.662;10.126;2022-12-20T03:51:04;8.85;;;5.25;;
23747;SDS011;12054;53.662;10.126;2022-12-20T03:53:29;9.85;;;5.55;;
23747;SDS011;12054;53.662;10.126;2022-12-20T03:55:55;9.25;;;5.97;;
23747;SDS011;12054;53.662;10.126;2022-12-20T03:58:20;8.82;;;5.88;;
23747;SDS011;12054;53.662;10.126;2022-12-20T04:00:46;9.40;;;5.68;;
23747;SDS011;12054;53.662;10.126;2022-12-20T04:03:12;9.48;;;6.22;;
23747;SDS011;12054;53.662;10.126;2022-12-20T04:05:37;12.27;;;6.18;;
23747;SDS011;12054;53.662;10.126;2022-12-20T04:08:03;9.20;;;6.00;;
23747;SDS011;12054;53.662;10.126;2022-12-20T04:10:28;9.35;;;5.60;;
23747;SDS011;12054;53.662;10.126;2022-12-20T04:12:54;11.20;;;6.88;;
23747;SDS011;12054;53.662;10.126;2022-12-20T04:15:20;9.35;;;5.65;;
23747;SDS011;12054;53.662;10.126;2022-12-20T04:17:45;13.48;;;5.95;;
23747;SDS011;12054;53.662;10.126;2022-12-20T04:20:14;10.85;;;5.78;;
23747;SDS011;12054;53.662;10.126;2022-12-20T04:22:44;9.45;;;6.35;;
23747;SDS011;12054;53.662;10.126;2022-12-20T04:25:14;8.85;;;6.07;;
23747;SDS011;12054;53.662;10.126;2022-12-20T04:27:40;9.02;;;6.32;;
23747;SDS011;12054;53.662;10.126;2022-12-20T04:30:06;11.43;;;6.65;;
23747;SDS011;12054;53.662;10.126;2022-12-20T04:32:32;10.93;;;6.22;;
23747;SDS011;12054;53.662;10.126;2022-12-20T04:34:58;11.63;;;6.50;;
23747;SDS011;12054;53.662;10.126;2022-12-20T04:37:23;10.05;;;5.90;;
23747;SDS011;12054;53.662;10.126;2022-12-20T04:39:49;9.38;;;6.07;;
23747;SDS011;12054;53.662;10.126;2022-12-20T04:42:14;8.95;;;6.28;;
23747;SDS011;12054;53.662;10.126;2022-12-20T04:44:39;9.90;;;6.07;;
23747;SDS011;12054;53.662;10.126;2022-12-20T04:47:05;11.75;;;6.50;;
23747;SDS011;12054;53.662;10.126;2022-12-20T04:49:30;10.13;;;5.95;;
23747;SDS011;12054;53.662;10.126;2022-12-20T04:51:56;9.35;;;5.93;;
23747;SDS011;12054;53.662;10.126;2022-12-20T04:54:41;8.30;;;5.97;;
23747;SDS011;12054;53.662;10.126;2022-12-20T04:57:07;10.90;;;5.97;;
23747;SDS011;12054;53.662;10.126;2022-12-20T04:59:33;9.88;;;6.47;;
23747;SDS011;12054;53.662;10.126;2022-12-20T05:01:59;9.30;;;5.72;;
23747;SDS011;12054;53.662;10.126;2022-12-20T05:04:25;10.30;;;6.60;;
23747;SDS011;12054;53.662;10.126;2022-12-20T05:06:50;8.00;;;5.90;;
23747;SDS011;12054;53.662;10.126;2022-12-20T05:09:16;11.68;;;6.25;;
23747;SDS011;12054;53.662;10.126;2022-12-20T05:11:41;9.43;;;6.32;;
23747;SDS011;12054;53.662;10.126;2022-12-20T05:14:07;11.60;;;6.30;;
23747;SDS011;12054;53.662;10.126;2022-12-20T05:16:32;11.68;;;6.18;;
23747;SDS011;12054;53.662;10.126;2022-12-20T05:18:58;10.82;;;6.70;;
23747;SDS011;12054;53.662;10.126;2022-12-20T05:21:23;11.20;;;6.25;;
23747;SDS011;12054;53.662;10.126;2022-12-20T05:24:08;11.13;;;7.43;;
23747;SDS011;12054;53.662;10.126;2022-12-20T05:26:52;11.30;;;7.43;;
23747;SDS011;12054;53.662;10.126;2022-12-20T05:29:19;10.50;;;7.50;;
23747;SDS011;12054;53.662;10.126;2022-12-20T05:31:44;12.32;;;6.70;;
23747;SDS011;12054;53.662;10.126;2022-12-20T05:34:10;13.98;;;8.02;;
23747;SDS011;12054;53.662;10.126;2022-12-20T05:36:35;10.88;;;7.93;;
23747;SDS011;12054;53.662;10.126;2022-12-20T05:39:01;15.63;;;7.65;;
23747;SDS011;12054;53.662;10.126;2022-12-20T05:41:26;11.98;;;8.00;;
23747;SDS011;12054;53.662;10.126;2022-12-20T05:43:52;13.15;;;8.57;;
23747;SDS011;12054;53.662;10.126;2022-12-20T05:46:17;16.17;;;7.78;;
23747;SDS011;12054;53.662;10.126;2022-12-20T05:48:43;13.63;;;8.40;;
23747;SDS011;12054;53.662;10.126;2022-12-20T05:51:08;16.65;;;8.35;;
23747;SDS011;12054;53.662;10.126;2022-12-20T05:53:34;14.68;;;8.50;;
23747;SDS011;12054;53.662;10.126;2022-12-20T05:56:00;11.68;;;8.18;;
23747;SDS011;12054;53.662;10.126;2022-12-20T05:58:25;13.07;;;8.40;;
23747;SDS011;12054;53.662;10.126;2022-12-20T06:00:51;15.43;;;8.18;;
23747;SDS011;12054;53.662;10.126;2022-12-20T06:03:16;13.38;;;7.85;;
23747;SDS011;12054;53.662;10.126;2022-12-20T06:05:42;14.38;;;7.60;;
23747;SDS011;12054;53.662;10.126;2022-12-20T06:08:08;11.82;;;8.18;;
23747;SDS011;12054;53.662;10.126;2022-12-20T06:10:35;14.85;;;8.27;;
23747;SDS011;12054;53.662;10.126;2022-12-20T06:13:01;13.05;;;8.70;;
23747;SDS011;12054;53.662;10.126;2022-12-20T06:15:28;14.80;;;7.00;;
23747;SDS011;12054;53.662;10.126;2022-12-20T06:17:54;14.38;;;9.45;;
23747;SDS011;12054;53.662;10.126;2022-12-20T06:20:19;14.55;;;9.82;;
23747;SDS011;12054;53.662;10.126;2022-12-20T06:22:45;15.07;;;8.73;;
23747;SDS011;12054;53.662;10.126;2022-12-20T06:25:10;20.08;;;9.25;;
23747;SDS011;12054;53.662;10.126;2022-12-20T06:27:37;13.52;;;7.85;;
23747;SDS011;12054;53.662;10.126;2022-12-20T06:30:03;14.65;;;9.13;;
23747;SDS011;12054;53.662;10.126;2022-12-20T06:32:30;16.73;;;10.10;;
23747;SDS011;12054;53.662;10.126;2022-12-20T06:34:55;17.80;;;9.50;;
23747;SDS011;12054;53.662;10.126;2022-12-20T06:37:21;15.43;;;9.45;;
23747;SDS011;12054;53.662;10.126;2022-12-20T06:39:48;17.65;;;9.90;;
23747;SDS011;12054;53.662;10.126;2022-12-20T06:42:13;17.73;;;8.90;;
23747;SDS011;12054;53.662;10.126;2022-12-20T06:44:39;19.63;;;9.00;;
23747;SDS011;12054;53.662;10.126;2022-12-20T06:47:04;20.05;;;9.20;;
23747;SDS011;12054;53.662;10.126;2022-12-20T06:49:30;15.65;;;9.73;;
23747;SDS011;12054;53.662;10.126;2022-12-20T06:51:55;17.73;;;9.90;;
23747;SDS011;12054;53.662;10.126;2022-12-20T06:54:21;15.93;;;9.07;;
23747;SDS011;12054;53.662;10.126;2022-12-20T06:56:46;19.25;;;10.18;;
23747;SDS011;12054;53.662;10.126;2022-12-20T06:59:12;16.33;;;8.88;;
23747;SDS011;12054;53.662;10.126;2022-12-20T07:01:37;14.82;;;8.88;;
23747;SDS011;12054;53.662;10.126;2022-12-20T07:04:03;17.85;;;9.15;;
23747;SDS011;12054;53.662;10.126;2022-12-20T07:06:29;15.57;;;8.98;;
23747;SDS011;12054;53.662;10.126;2022-12-20T07:08:54;14.88;;;8.77;;
23747;SDS011;12054;53.662;10.126;2022-12-20T07:11:20;16.92;;;10.32;;
23747;SDS011;12054;53.662;10.126;2022-12-20T07:13:45;17.75;;;9.07;;
23747;SDS011;12054;53.662;10.126;2022-12-20T07:16:11;16.27;;;9.48;;
23747;SDS011;12054;53.662;10.126;2022-12-20T07:18:37;19.95;;;9.95;;
23747;SDS011;12054;53.662;10.126;2022-12-20T07:21:03;16.70;;;9.52;;
23747;SDS011;12054;53.662;10.126;2022-12-20T07:23:30;18.17;;;9.65;;
23747;SDS011;12054;53.662;10.126;2022-12-20T07:25:57;17.83;;;10.18;;
23747;SDS011;12054;53.662;10.126;2022-12-20T07:28:24;16.90;;;10.25;;
23747;SDS011;12054;53.662;10.126;2022-12-20T07:30:51;19.63;;;10.73;;
23747;SDS011;12054;53.662;10.126;2022-12-20T07:33:17;17.35;;;10.07;;
23747;SDS011;12054;53.662;10.126;2022-12-20T07:35:42;17.08;;;11.13;;
23747;SDS011;12054;53.662;10.126;2022-12-20T07:38:09;14.25;;;9.00;;
23747;SDS011;12054;53.662;10.126;2022-12-20T07:40:38;16.40;;;10.05;;
23747;SDS011;12054;53.662;10.126;2022-12-20T07:43:04;17.02;;;9.82;;
23747;SDS011;12054;53.662;10.126;2022-12-20T07:45:30;17.83;;;9.75;;
23747;SDS011;12054;53.662;10.126;2022-12-20T07:47:55;15.50;;;9.18;;
23747;SDS011;12054;53.662;10.126;2022-12-20T07:50:21;19.05;;;10.18;;
23747;SDS011;12054;53.662;10.126;2022-12-20T07:52:48;18.52;;;10.52;;
23747;SDS011;12054;53.662;10.126;2022-12-20T07:58:36;18.77;;;10.93;;
23747;SDS011;12054;53.662;10.126;2022-12-20T08:01:04;17.80;;;9.93;;
23747;SDS011;12054;53.662;10.126;2022-12-20T08:03:32;16.98;;;11.02;;
23747;SDS011;12054;53.662;10.126;2022-12-20T08:06:04;19.40;;;11.65;;
23747;SDS011;12054;53.662;10.126;2022-12-20T08:08:31;19.77;;;9.80;;
23747;SDS011;12054;53.662;10.126;2022-12-20T08:10:58;18.42;;;11.52;;
23747;SDS011;12054;53.662;10.126;2022-12-20T08:13:25;23.67;;;11.88;;
23747;SDS011;12054;53.662;10.126;2022-12-20T08:15:51;19.25;;;11.55;;
23747;SDS011;12054;53.662;10.126;2022-12-20T08:18:17;20.13;;;10.32;;
23747;SDS011;12054;53.662;10.126;2022-12-20T08:20:42;18.67;;;10.57;;
23747;SDS011;12054;53.662;10.126;2022-12-20T08:23:08;20.90;;;11.63;;
23747;SDS011;12054;53.662;10.126;2022-12-20T08:25:33;17.63;;;10.63;;
23747;SDS011;12054;53.662;10.126;2022-12-20T08:27:59;20.08;;;11.48;;
23747;SDS011;12054;53.662;10.126;2022-12-20T08:30:26;18.85;;;11.38;;
23747;SDS011;12054;53.662;10.126;2022-12-20T08:32:52;17.02;;;9.88;;
23747;SDS011;12054;53.662;10.126;2022-12-20T08:35:18;16.38;;;9.93;;
23747;SDS011;12054;53.662;10.126;2022-12-20T08:37:44;18.42;;;11.52;;
23747;SDS011;12054;53.662;10.126;2022-12-20T08:40:10;19.33;;;10.80;;
23747;SDS011;12054;53.662;10.126;2022-12-20T08:42:35;19.50;;;11.35;;
23747;SDS011;12054;53.662;10.126;2022-12-20T08:45:01;20.58;;;11.43;;
23747;SDS011;12054;53.662;10.126;2022-12-20T08:47:27;17.83;;;10.50;;
23747;SDS011;12054;53.662;10.126;2022-12-20T08:49:54;18.40;;;9.88;;
23747;SDS011;12054;53.662;10.126;2022-12-20T08:52:19;20.52;;;11.40;;
23747;SDS011;12054;53.662;10.126;2022-12-20T08:54:45;18.77;;;10.93;;
23747;SDS011;12054;53.662;10.126;2022-12-20T08:57:11;18.67;;;11.30;;
23747;SDS011;12054;53.662;10.126;2022-12-20T08:59:37;16.10;;;9.50;;
23747;SDS011;12054;53.662;10.126;2022-12-20T09:02:03;20.85;;;12.15;;
23747;SDS011;12054;53.662;10.126;2022-12-20T09:04:29;19.75;;;11.07;;
23747;SDS011;12054;53.662;10.126;2022-12-20T09:06:54;16.73;;;10.23;;
23747;SDS011;12054;53.662;10.126;2022-12-20T09:09:20;16.65;;;10.43;;
23747;SDS011;12054;53.662;10.126;2022-12-20T09:11:45;18.05;;;11.50;;
23747;SDS011;12054;53.662;10.126;2022-12-20T09:14:11;16.08;;;9.50;;
23747;SDS011;12054;53.662;10.126;2022-12-20T09:16:36;17.92;;;9.85;;
23747;SDS011;12054;53.662;10.126;2022-12-20T09:19:02;16.35;;;10.13;;
23747;SDS011;12054;53.662;10.126;2022-12-20T09:21:28;16.27;;;10.63;;
23747;SDS011;12054;53.662;10.126;2022-12-20T09:23:54;16.35;;;9.65;;
23747;SDS011;12054;53.662;10.126;2022-12-20T09:26:21;18.90;;;11.35;;
23747;SDS011;12054;53.662;10.126;2022-12-20T09:28:47;16.85;;;10.38;;
23747;SDS011;12054;53.662;10.126;2022-12-20T09:31:14;19.13;;;10.93;;
23747;SDS011;12054;53.662;10.126;2022-12-20T09:33:42;19.92;;;10.55;;
23747;SDS011;12054;53.662;10.126;2022-12-20T09:36:12;16.02;;;10.05;;
23747;SDS011;12054;53.662;10.126;2022-12-20T09:38:44;16.45;;;10.23;;
23747;SDS011;12054;53.662;10.126;2022-12-20T09:41:33;17.92;;;10.93;;
23747;SDS011;12054;53.662;10.126;2022-12-20T09:44:15;20.25;;;10.00;;
23747;SDS011;12054;53.662;10.126;2022-12-20T09:47:33;13.73;;;9.63;;
23747;SDS011;12054;53.662;10.126;2022-12-20T09:49:41;15.82;;;9.65;;
23747;SDS011;12054;53.662;10.126;2022-12-20T09:52:24;15.23;;;9.82;;
23747;SDS011;12054;53.662;10.126;2022-12-20T09:55:26;17.55;;;9.68;;
23747;SDS011;12054;53.662;10.126;2022-12-20T10:00:50;14.65;;;9.15;;
23747;SDS011;12054;53.662;10.126;2022-12-20T10:03:29;13.57;;;8.40;;
23747;SDS011;12054;53.662;10.126;2022-12-20T10:08:44;17.45;;;8.98;;
23747;SDS011;12054;53.662;10.126;2022-12-20T10:11:32;15.02;;;8.75;;
23747;SDS011;12054;53.662;10.126;2022-12-20T10:16:54;15.82;;;9.45;;
23747;SDS011;12054;53.662;10.126;2022-12-20T10:22:22;16.35;;;9.60;;
23747;SDS011;12054;53.662;10.126;2022-12-20T10:25:13;14.35;;;9.25;;
23747;SDS011;12054;53.662;10.126;2022-12-20T10:27:45;16.08;;;10.60;;
23747;SDS011;12054;53.662;10.126;2022-12-20T10:30:22;16.50;;;9.93;;
23747;SDS011;12054;53.662;10.126;2022-12-20T10:32:50;19.10;;;10.10;;
23747;SDS011;12054;53.662;10.126;2022-12-20T10:35:29;17.08;;;10.65;;
23747;SDS011;12054;53.662;10.126;2022-12-20T10:38:05;16.95;;;10.35;;
23747;SDS011;12054;53.662;10.126;2022-12-20T10:40:38;19.05;;;10.85;;
23747;SDS011;12054;53.662;10.126;2022-12-20T10:43:07;20.15;;;10.68;;
23747;SDS011;12054;53.662;10.126;2022-12-20T10:45:43;16.08;;;10.10;;
23747;SDS011;12054;53.662;10.126;2022-12-20T10:48:33;18.13;;;11.10;;
23747;SDS011;12054;53.662;10.126;2022-12-20T10:53:36;17.23;;;10.77;;
23747;SDS011;12054;53.662;10.126;2022-12-20T10:56:24;15.50;;;9.85;;
23747;SDS011;12054;53.662;10.126;2022-12-20T10:58:53;19.35;;;10.65;;
23747;SDS011;12054;53.662;10.126;2022-12-20T11:01:28;17.77;;;10.80;;
23747;SDS011;12054;53.662;10.126;2022-12-20T11:04:03;16.65;;;10.38;;
23747;SDS011;12054;53.662;10.126;2022-12-20T11:14:29;13.52;;;8.95;;
23747;SDS011;12054;53.662;10.126;2022-12-20T11:16:57;16.90;;;9.65;;
23747;SDS011;12054;53.662;10.126;2022-12-20T11:27:33;13.70;;;9.23;;
23747;SDS011;12054;53.662;10.126;2022-12-20T11:30:14;13.68;;;9.45;;
23747;SDS011;12054;53.662;10.126;2022-12-20T11:32:54;14.15;;;8.88;;
23747;SDS011;12054;53.662;10.126;2022-12-20T11:35:48;13.27;;;8.70;;
23747;SDS011;12054;53.662;10.126;2022-12-20T11:38:27;14.55;;;8.55;;
23747;SDS011;12054;53.662;10.126;2022-12-20T11:49:13;13.73;;;8.40;;
23747;SDS011;12054;53.662;10.126;2022-12-20T11:54:42;12.13;;;7.95;;
23747;SDS011;12054;53.662;10.126;2022-12-20T11:57:16;12.73;;;7.57;;
23747;SDS011;12054;53.662;10.126;2022-12-20T11:59:50;11.98;;;7.75;;
23747;SDS011;12054;53.662;10.126;2022-12-20T12:02:26;12.40;;;8.00;;
23747;SDS011;12054;53.662;10.126;2022-12-20T12:05:16;11.40;;;7.97;;
23747;SDS011;12054;53.662;10.126;2022-12-20T12:07:46;11.40;;;7.68;;
23747;SDS011;12054;53.662;10.126;2022-12-20T12:10:22;10.45;;;7.30;;
23747;SDS011;12054;53.662;10.126;2022-12-20T12:15:53;12.95;;;7.60;;
23747;SDS011;12054;53.662;10.126;2022-12-20T12:18:30;11.57;;;6.82;;
23747;SDS011;12054;53.662;10.126;2022-12-20T12:26:24;9.82;;;6.45;;
23747;SDS011;12054;53.662;10.126;2022-12-20T12:28:59;11.70;;;6.60;;
23747;SDS011;12054;53.662;10.126;2022-12-20T12:31:41;9.48;;;6.65;;
23747;SDS011;12054;53.662;10.126;2022-12-20T12:34:33;11.73;;;6.38;;
23747;SDS011;12054;53.662;10.126;2022-12-20T12:47:56;11.60;;;6.88;;
23747;SDS011;12054;53.662;10.126;2022-12-20T12:50:45;12.35;;;6.82;;
23747;SDS011;12054;53.662;10.126;2022-12-20T12:53:18;9.50;;;6.22;;
23747;SDS011;12054;53.662;10.126;2022-12-20T12:55:48;8.95;;;6.75;;
23747;SDS011;12054;53.662;10.126;2022-12-20T13:00:48;9.40;;;6.50;;
23747;SDS011;12054;53.662;10.126;2022-12-20T13:03:34;7.60;;;5.82;;
23747;SDS011;12054;53.662;10.126;2022-12-20T13:08:48;8.73;;;5.22;;
23747;SDS011;12054;53.662;10.126;2022-12-20T13:11:28;7.78;;;5.90;;
23747;SDS011;12054;53.662;10.126;2022-12-20T13:16:43;9.18;;;5.63;;
23747;SDS011;12054;53.662;10.126;2022-12-20T13:19:13;8.52;;;5.90;;
23747;SDS011;12054;53.662;10.126;2022-12-20T13:21:55;10.63;;;6.50;;
23747;SDS011;12054;53.662;10.126;2022-12-20T13:24:29;8.95;;;5.28;;
23747;SDS011;12054;53.662;10.126;2022-12-20T13:26:58;10.45;;;6.53;;
23747;SDS011;12054;53.662;10.126;2022-12-20T13:29:34;11.57;;;6.25;;
23747;SDS011;12054;53.662;10.126;2022-12-20T13:32:01;10.90;;;6.57;;
23747;SDS011;12054;53.662;10.126;2022-12-20T13:34:38;10.60;;;6.65;;
23747;SDS011;12054;53.662;10.126;2022-12-20T13:37:28;14.27;;;7.25;;
23747;SDS011;12054;53.662;10.126;2022-12-20T13:43:25;13.45;;;7.22;;
23747;SDS011;12054;53.662;10.126;2022-12-20T13:51:05;12.05;;;7.03;;
23747;SDS011;12054;53.662;10.126;2022-12-20T13:53:34;10.05;;;7.30;;
23747;SDS011;12054;53.662;10.126;2022-12-20T13:56:35;15.05;;;7.50;;
23747;SDS011;12054;53.662;10.126;2022-12-20T14:01:56;10.73;;;7.43;;
23747;SDS011;12054;53.662;10.126;2022-12-20T14:04:38;10.82;;;8.10;;
23747;SDS011;12054;53.662;10.126;2022-12-20T14:07:07;11.98;;;7.20;;
23747;SDS011;12054;53.662;10.126;2022-12-20T14:09:43;10.85;;;7.28;;
23747;SDS011;12054;53.662;10.126;2022-12-20T14:12:14;13.45;;;8.00;;
23747;SDS011;12054;53.662;10.126;2022-12-20T14:14:45;11.02;;;7.60;;
23747;SDS011;12054;53.662;10.126;2022-12-20T14:19:42;11.25;;;8.13;;
23747;SDS011;12054;53.662;10.126;2022-12-20T14:22:09;12.75;;;8.10;;
23747;SDS011;12054;53.662;10.126;2022-12-20T14:24:36;13.55;;;8.02;;
23747;SDS011;12054;53.662;10.126;2022-12-20T14:27:07;13.13;;;7.50;;
23747;SDS011;12054;53.662;10.126;2022-12-20T14:29:36;11.98;;;7.72;;
23747;SDS011;12054;53.662;10.126;2022-12-20T14:32:04;13.18;;;7.85;;
23747;SDS011;12054;53.662;10.126;2022-12-20T14:34:30;11.55;;;7.28;;
23747;SDS011;12054;53.662;10.126;2022-12-20T14:37:16;11.90;;;7.40;;
23747;SDS011;12054;53.662;10.126;2022-12-20T14:42:33;13.23;;;8.27;;
23747;SDS011;12054;53.662;10.126;2022-12-20T14:45:02;12.35;;;7.97;;
23747;SDS011;12054;53.662;10.126;2022-12-20T14:47:47;13.60;;;7.95;;
23747;SDS011;12054;53.662;10.126;2022-12-20T14:52:59;12.88;;;8.38;;
23747;SDS011;12054;53.662;10.126;2022-12-20T14:55:30;12.18;;;7.95;;
23747;SDS011;12054;53.662;10.126;2022-12-20T14:57:59;12.52;;;8.75;;
23747;SDS011;12054;53.662;10.126;2022-12-20T15:00:26;11.48;;;7.75;;
23747;SDS011;12054;53.662;10.126;2022-12-20T15:10:41;13.27;;;7.82;;
23747;SDS011;12054;53.662;10.126;2022-12-20T15:13:12;12.80;;;8.32;;
23747;SDS011;12054;53.662;10.126;2022-12-20T15:15:41;13.95;;;8.75;;
23747;SDS011;12054;53.662;10.126;2022-12-20T15:18:09;15.52;;;8.55;;
23747;SDS011;12054;53.662;10.126;2022-12-20T15:20:40;16.13;;;9.38;;
23747;SDS011;12054;53.662;10.126;2022-12-20T15:23:10;14.57;;;9.07;;
23747;SDS011;12054;53.662;10.126;2022-12-20T15:25:38;13.63;;;8.60;;
23747;SDS011;12054;53.662;10.126;2022-12-20T15:28:10;10.70;;;8.15;;
23747;SDS011;12054;53.662;10.126;2022-12-20T15:30:42;16.80;;;9.32;;
23747;SDS011;12054;53.662;10.126;2022-12-20T15:33:14;13.40;;;9.73;;
23747;SDS011;12054;53.662;10.126;2022-12-20T15:35:42;15.60;;;9.52;;
23747;SDS011;12054;53.662;10.126;2022-12-20T15:38:19;13.73;;;9.35;;
23747;SDS011;12054;53.662;10.126;2022-12-20T15:40:47;14.05;;;10.05;;
23747;SDS011;12054;53.662;10.126;2022-12-20T15:43:17;14.20;;;9.48;;
23747;SDS011;12054;53.662;10.126;2022-12-20T15:45:46;15.82;;;10.68;;
23747;SDS011;12054;53.662;10.126;2022-12-20T15:48:15;15.80;;;9.27;;
23747;SDS011;12054;53.662;10.126;2022-12-20T15:50:49;14.75;;;11.50;;
23747;SDS011;12054;53.662;10.126;2022-12-20T15:53:24;18.92;;;10.95;;
23747;SDS011;12054;53.662;10.126;2022-12-20T15:55:59;13.52;;;9.90;;
23747;SDS011;12054;53.662;10.126;2022-12-20T15:58:25;19.38;;;11.43;;
23747;SDS011;12054;53.662;10.126;2022-12-20T16:00:55;17.58;;;11.18;;
23747;SDS011;12054;53.662;10.126;2022-12-20T16:03:27;16.50;;;10.93;;
23747;SDS011;12054;53.662;10.126;2022-12-20T16:05:55;15.93;;;10.07;;
23747;SDS011;12054;53.662;10.126;2022-12-20T16:08:21;17.23;;;10.85;;
23747;SDS011;12054;53.662;10.126;2022-12-20T16:10:46;15.93;;;10.15;;
23747;SDS011;12054;53.662;10.126;2022-12-20T16:13:15;13.85;;;10.15;;
23747;SDS011;12054;53.662;10.126;2022-12-20T16:15:45;15.60;;;9.82;;
23747;SDS011;12054;53.662;10.126;2022-12-20T16:18:11;15.95;;;10.57;;
23747;SDS011;12054;53.662;10.126;2022-12-20T16:20:36;16.30;;;10.75;;
23747;SDS011;12054;53.662;10.126;2022-12-20T16:23:03;17.40;;;11.13;;
23747;SDS011;12054;53.662;10.126;2022-12-20T16:25:30;15.55;;;10.02;;